Time;durP1;ratioP1;P1;durP2;ratioP2;P2;SDS_P1;SDS_P2;PMS_P1;PMS_P2;Temp;Humidity;BMP_temperature;BMP_pressure;BME280_temperature;BME280_humidity;BME280_pressure;Samples;Min_cycle;Max_cycle;Signal;HPM_P1;HPM_P2
2022/08/05 00:01:34;;;;;;;;;;;;;;;29.97;100.00;98807.50;5060718;28;19997;-54
2022/08/05 00:03:59;;;;;;;;;;;;;;;29.26;100.00;98812.06;5060737;28;20024;-53
2022/08/05 00:06:25;;;;;;;;;;;;;;;28.70;100.00;98833.31;5067790;28;20393;-50
2022/08/05 00:08:50;;;;;;;;;;;;;;;27.63;100.00;98852.78;5058499;28;19920;-53
2022/08/05 00:11:16;;;;;;;;;;;;;;;28.51;100.00;98829.22;5067044;28;19955;-53
2022/08/05 00:13:42;;;;;;;;;;;;;;;29.24;100.00;98786.72;5063606;28;19959;-53
2022/08/05 00:16:11;;;;;;;;;;;;;;;29.43;100.00;98754.47;5060156;28;20035;-53
2022/08/05 00:18:37;;;;;;;;;;;;;;;29.10;100.00;98738.75;5061266;28;19927;-54
2022/08/05 00:21:02;;;;;;;;;;;;;;;28.78;100.00;98756.44;5069387;28;20673;-52
2022/08/05 00:23:27;;;;;;;;;;;;;;;28.19;100.00;98771.81;5062919;28;20031;-54
2022/08/05 00:25:52;;;;;;;;;;;;;;;29.01;100.00;98768.91;5068193;28;20008;-53
2022/08/05 00:28:18;;;;;;;;;;;;;;;29.11;100.00;98766.09;5061473;28;20007;-53
2022/08/05 00:30:43;;;;;;;;;;;;;;;28.65;100.00;98777.34;5061947;28;20019;-54
2022/08/05 00:33:08;;;;;;;;;;;;;;;28.78;100.00;98761.75;5054952;28;19920;-54
2022/08/05 00:35:34;;;;;;;;;;;;;;;29.24;100.00;98738.97;5065588;28;20023;-50
2022/08/05 00:37:59;;;;;;;;;;;;;;;29.36;100.00;98737.59;5065632;28;19917;-52
2022/08/05 00:40:25;;;;;;;;;;;;;;;28.48;100.00;98734.16;5058754;28;19989;-53
2022/08/05 00:42:50;;;;;;;;;;;;;;;28.77;100.00;98717.66;5058334;28;21288;-53
2022/08/05 00:45:15;;;;;;;;;;;;;;;29.14;100.00;98705.56;5058684;28;19966;-51
2022/08/05 00:47:41;;;;;;;;;;;;;;;28.59;100.00;98703.84;5063581;28;20717;-53
2022/08/05 00:50:07;;;;;;;;;;;;;;;28.80;100.00;98705.06;5056733;28;19920;-53
2022/08/05 00:52:32;;;;;;;;;;;;;;;28.13;100.00;98703.63;5065023;28;20015;-53
2022/08/05 00:54:57;;;;;;;;;;;;;;;28.95;100.00;98690.91;5065086;28;20320;-53
2022/08/05 00:57:22;;;;;;;;;;;;;;;27.62;100.00;98687.09;5059489;28;20021;-53
2022/08/05 00:59:48;;;;;;;;;;;;;;;27.51;100.00;98667.94;5058873;28;20005;-49
2022/08/05 01:02:13;;;;;;;;;;;;;;;26.67;100.00;98680.31;5064008;28;19955;-52
2022/08/05 01:04:38;;;;;;;;;;;;;;;27.93;100.00;98666.09;5055054;28;19945;-52
2022/08/05 01:07:03;;;;;;;;;;;;;;;26.63;100.00;98667.59;5057393;28;20036;-52
2022/08/05 01:09:29;;;;;;;;;;;;;;;26.43;100.00;98683.63;5059640;28;20915;-53
2022/08/05 01:11:54;;;;;;;;;;;;;;;27.23;100.00;98685.94;5058403;28;19924;-53
2022/08/05 01:14:23;;;;;;;;;;;;;;;27.12;100.00;98673.00;5058853;28;19920;-54
2022/08/05 01:16:52;;;;;;;;;;;;;;;27.33;100.00;98665.44;5057886;28;20131;-54
2022/08/05 01:19:20;;;;;;;;;;;;;;;27.16;100.00;98670.84;5052486;28;19921;-53
2022/08/05 01:21:57;;;;;;;;;;;;;;;26.49;100.00;98682.19;5060976;28;20199;-56
2022/08/05 01:24:25;;;;;;;;;;;;;;;26.79;100.00;98680.03;5055683;28;19924;-53
2022/08/05 01:26:53;;;;;;;;;;;;;;;26.95;100.00;98680.06;5050882;28;19958;-53
2022/08/05 01:29:37;;;;;;;;;;;;;;;27.98;100.00;98678.81;5059875;28;19916;-52
2022/08/05 01:32:04;;;;;;;;;;;;;;;28.07;100.00;98677.81;5055240;28;20634;-53
2022/08/05 01:34:37;;;;;;;;;;;;;;;27.16;100.00;98673.50;5059198;28;20152;-54
2022/08/05 01:37:05;;;;;;;;;;;;;;;27.13;100.00;98677.28;5052740;28;19950;-54
2022/08/05 01:39:30;;;;;;;;;;;;;;;27.26;100.00;98674.22;5056236;28;19920;-51
2022/08/05 01:41:55;;;;;;;;;;;;;;;28.92;100.00;98671.84;5055799;28;19920;-52
2022/08/05 01:44:20;;;;;;;;;;;;;;;29.36;100.00;98673.94;5057225;28;19925;-54
2022/08/05 01:46:46;;;;;;;;;;;;;;;29.22;100.00;98677.34;5063006;28;19916;-54
2022/08/05 01:49:12;;;;;;;;;;;;;;;29.41;100.00;98671.56;5058704;28;20021;-52
2022/08/05 01:51:37;;;;;;;;;;;;;;;29.60;100.00;98676.41;5059844;28;20263;-54
2022/08/05 01:54:03;;;;;;;;;;;;;;;29.19;100.00;98679.38;5058865;28;19920;-54
2022/08/05 01:56:29;;;;;;;;;;;;;;;29.68;100.00;98666.75;5060392;28;20178;-54
2022/08/05 01:58:54;;;;;;;;;;;;;;;30.10;100.00;98662.66;5054454;28;19931;-53
2022/08/05 02:01:20;;;;;;;;;;;;;;;29.91;100.00;98659.53;5064934;28;20098;-54
2022/08/05 02:03:45;;;;;;;;;;;;;;;28.68;100.00;98663.06;5056859;28;19951;-53
2022/08/05 02:06:11;;;;;;;;;;;;;;;27.68;100.00;98673.22;5058675;28;20359;-53
2022/08/05 02:08:36;;;;;;;;;;;;;;;28.08;100.00;98668.88;5063033;28;20781;-53
2022/08/05 02:11:06;;;;;;;;;;;;;;;28.49;100.00;98663.50;5055579;28;19998;-54
2022/08/05 02:13:37;;;;;;;;;;;;;;;29.40;100.00;98659.31;5062740;28;19930;-53
2022/08/05 02:16:04;;;;;;;;;;;;;;;28.71;100.00;98670.66;5064445;28;19920;-53
2022/08/05 02:18:31;;;;;;;;;;;;;;;29.08;100.00;98674.47;5062085;28;19920;-52
2022/08/05 02:20:57;;;;;;;;;;;;;;;29.11;100.00;98674.09;5059451;28;19959;-54
2022/08/05 02:23:23;;;;;;;;;;;;;;;29.48;100.00;98669.84;5063650;28;19947;-53
2022/08/05 02:25:48;;;;;;;;;;;;;;;28.55;100.00;98676.03;5064902;28;19920;-52
2022/08/05 02:28:13;;;;;;;;;;;;;;;28.72;100.00;98671.50;5058053;28;19920;-51
2022/08/05 02:30:44;;;;;;;;;;;;;;;28.54;100.00;98664.59;5054240;28;20550;-50
2022/08/05 02:33:09;;;;;;;;;;;;;;;28.13;100.00;98677.97;5062828;28;19982;-52
2022/08/05 02:35:34;;;;;;;;;;;;;;;28.33;100.00;98678.41;5060258;28;21304;-52
2022/08/05 02:37:59;;;;;;;;;;;;;;;28.25;100.00;98670.47;5058377;28;19920;-54
2022/08/05 02:40:25;;;;;;;;;;;;;;;28.52;100.00;98661.31;5052217;28;19928;-54
2022/08/05 02:42:50;;;;;;;;;;;;;;;28.27;100.00;98657.06;5057788;28;19926;-53
2022/08/05 02:45:15;;;;;;;;;;;;;;;28.29;100.00;98655.91;5055291;28;20445;-51
2022/08/05 02:47:41;;;;;;;;;;;;;;;28.39;100.00;98662.81;5061011;28;19926;-53
2022/08/05 02:50:06;;;;;;;;;;;;;;;28.01;100.00;98662.59;5059414;28;20011;-53
2022/08/05 02:52:32;;;;;;;;;;;;;;;28.02;100.00;98669.56;5056346;28;20507;-52
2022/08/05 02:55:00;;;;;;;;;;;;;;;28.21;100.00;98684.22;5061997;28;19916;-51
2022/08/05 02:57:25;;;;;;;;;;;;;;;27.71;100.00;98696.69;5055026;28;19946;-51
2022/08/05 02:59:51;;;;;;;;;;;;;;;27.53;100.00;98697.69;5058117;28;20389;-52
2022/08/05 03:02:16;;;;;;;;;;;;;;;27.53;100.00;98692.41;5054806;28;19923;-53
2022/08/05 03:04:42;;;;;;;;;;;;;;;27.11;100.00;98703.06;5057591;28;20458;-53
2022/08/05 03:07:08;;;;;;;;;;;;;;;26.70;100.00;98718.78;5057392;28;19920;-49
2022/08/05 03:09:33;;;;;;;;;;;;;;;25.84;100.00;98733.59;5061166;28;19931;-52
2022/08/05 03:11:58;;;;;;;;;;;;;;;25.79;100.00;98732.38;5057705;28;19917;-53
2022/08/05 03:14:23;;;;;;;;;;;;;;;25.47;100.00;98736.38;5053345;28;19921;-51
2022/08/05 03:16:49;;;;;;;;;;;;;;;25.41;100.00;98735.19;5058837;28;20012;-51
2022/08/05 03:19:14;;;;;;;;;;;;;;;24.68;100.00;98748.34;5055066;28;20536;-51
2022/08/05 03:21:39;;;;;;;;;;;;;;;23.99;100.00;98747.69;5062533;28;19961;-53
2022/08/05 03:24:05;;;;;;;;;;;;;;;24.52;100.00;98754.22;5060578;28;19935;-49
2022/08/05 03:26:30;;;;;;;;;;;;;;;24.76;100.00;98744.97;5055030;28;19991;-52
2022/08/05 03:28:55;;;;;;;;;;;;;;;24.62;100.00;98744.47;5058249;28;20582;-50
2022/08/05 03:31:21;;;;;;;;;;;;;;;24.88;100.00;98746.44;5064273;28;19928;-53
2022/08/05 03:33:46;;;;;;;;;;;;;;;24.71;100.00;98749.84;5064997;28;20409;-52
2022/08/05 03:36:11;;;;;;;;;;;;;;;24.24;100.00;98760.34;5063972;28;19920;-51
2022/08/05 03:38:40;;;;;;;;;;;;;;;23.80;100.00;98748.50;5058450;28;19920;-51
2022/08/05 03:41:06;;;;;;;;;;;;;;;23.78;100.00;98747.81;5066143;28;19963;-51
2022/08/05 03:43:31;;;;;;;;;;;;;;;24.31;100.00;98762.25;5067652;28;20338;-51
2022/08/05 03:45:56;;;;;;;;;;;;;;;24.36;100.00;98759.25;5062699;28;20061;-52
2022/08/05 03:48:21;;;;;;;;;;;;;;;24.17;100.00;98774.06;5057293;28;19983;-52
2022/08/05 03:50:58;;;;;;;;;;;;;;;23.49;100.00;98794.25;5065395;28;19916;-51
2022/08/05 03:53:31;;;;;;;;;;;;;;;23.59;100.00;98787.22;5059102;28;20319;-51
2022/08/05 03:55:59;;;;;;;;;;;;;;;23.74;100.00;98796.41;5059564;28;20796;-49
2022/08/05 03:58:25;;;;;;;;;;;;;;;23.75;100.00;98807.75;5057949;28;19923;-46
2022/08/05 04:00:50;;;;;;;;;;;;;;;24.20;100.00;98813.28;5039985;28;19981;-45
2022/08/05 04:03:15;;;;;;;;;;;;;;;24.25;100.00;98835.72;5065114;28;19931;-45
2022/08/05 04:05:41;;;;;;;;;;;;;;;25.76;100.00;98841.66;5057058;28;20091;-48
2022/08/05 04:08:07;;;;;;;;;;;;;;;26.15;100.00;98851.94;5059463;28;19920;-47
2022/08/05 04:10:32;;;;;;;;;;;;;;;26.50;100.00;98853.69;5052311;28;20308;-47
2022/08/05 04:12:57;;;;;;;;;;;;;;;26.25;100.00;98870.31;5059012;28;19920;-49
2022/08/05 04:15:23;;;;;;;;;;;;;;;26.35;100.00;98857.06;5061351;28;19923;-49
2022/08/05 04:17:48;;;;;;;;;;;;;;;26.49;100.00;98825.63;5059923;28;19973;-52
2022/08/05 04:20:17;;;;;;;;;;;;;;;26.07;100.00;98799.91;5056809;28;19920;-49
2022/08/05 04:22:43;;;;;;;;;;;;;;;26.06;100.00;98768.41;5063506;28;19973;-48
2022/08/05 04:25:08;;;;;;;;;;;;;;;26.41;100.00;98742.88;5066529;28;20050;-48
2022/08/05 04:27:33;;;;;;;;;;;;;;;26.10;100.00;98722.25;5061103;28;20011;-50
2022/08/05 04:29:59;;;;;;;;;;;;;;;26.53;100.00;98704.66;5071753;28;20648;-47
2022/08/05 04:32:24;;;;;;;;;;;;;;;24.52;100.00;98679.66;5066646;28;20464;-52
2022/08/05 04:34:49;;;;;;;;;;;;;;;25.01;100.00;98662.59;5062866;28;20316;-48
2022/08/05 04:37:14;;;;;;;;;;;;;;;24.73;100.00;98651.28;5064748;28;20023;-47
2022/08/05 04:39:40;;;;;;;;;;;;;;;23.82;100.00;98642.38;5055418;28;19963;-47
2022/08/05 04:42:05;;;;;;;;;;;;;;;23.74;100.00;98643.91;5062235;28;20386;-46
2022/08/05 04:44:30;;;;;;;;;;;;;;;24.46;100.00;98646.00;5061583;28;20937;-47
2022/08/05 04:46:56;;;;;;;;;;;;;;;23.61;100.00;98659.13;5065091;28;20959;-47
2022/08/05 04:49:22;;;;;;;;;;;;;;;23.45;100.00;98685.13;5058165;28;19920;-47
2022/08/05 04:51:47;;;;;;;;;;;;;;;23.20;100.00;98700.47;5058314;28;19932;-45
2022/08/05 04:54:13;;;;;;;;;;;;;;;23.57;100.00;98720.81;5055696;28;20375;-46
2022/08/05 04:56:38;;;;;;;;;;;;;;;23.85;100.00;98734.13;5061917;28;20456;-47
2022/08/05 04:59:04;;;;;;;;;;;;;;;24.96;100.00;98728.09;5056968;28;19969;-46
2022/08/05 05:01:29;;;;;;;;;;;;;;;23.54;100.00;98731.63;5064355;28;19966;-45
2022/08/05 05:03:54;;;;;;;;;;;;;;;24.56;100.00;98742.44;5057043;28;20011;-49
2022/08/05 05:06:19;;;;;;;;;;;;;;;24.23;100.00;98742.91;5057949;28;19927;-47
2022/08/05 05:08:44;;;;;;;;;;;;;;;25.17;100.00;98732.25;5060149;28;19977;-47
2022/08/05 05:11:10;;;;;;;;;;;;;;;25.73;100.00;98731.19;5061376;28;19976;-47
2022/08/05 05:13:35;;;;;;;;;;;;;;;25.08;100.00;98739.25;5059250;28;19951;-49
2022/08/05 05:16:00;;;;;;;;;;;;;;;25.41;100.00;98737.81;5063877;28;19974;-47
2022/08/05 05:18:25;;;;;;;;;;;;;;;26.94;100.00;98731.28;5054929;28;20039;-46
2022/08/05 05:20:51;;;;;;;;;;;;;;;26.85;100.00;98734.88;5055363;28;20024;-48
2022/08/05 05:23:16;;;;;;;;;;;;;;;27.21;100.00;98729.38;5061037;28;19959;-46
2022/08/05 05:25:41;;;;;;;;;;;;;;;27.05;100.00;98733.63;5060371;28;20015;-46
2022/08/05 05:28:07;;;;;;;;;;;;;;;27.08;100.00;98735.94;5064319;28;19916;-48
2022/08/05 05:30:33;;;;;;;;;;;;;;;27.02;100.00;98741.03;5061423;28;19917;-50
2022/08/05 05:32:58;;;;;;;;;;;;;;;27.27;100.00;98739.31;5058978;28;19956;-49
2022/08/05 05:35:24;;;;;;;;;;;;;;;27.66;100.00;98728.09;5062759;28;19920;-47
2022/08/05 05:37:49;;;;;;;;;;;;;;;27.75;100.00;98735.06;5061140;28;20712;-49
2022/08/05 05:40:15;;;;;;;;;;;;;;;27.93;100.00;98722.50;5061415;28;19928;-50
2022/08/05 05:42:41;;;;;;;;;;;;;;;27.72;100.00;98722.16;5054799;28;19924;-48
2022/08/05 05:45:06;;;;;;;;;;;;;;;27.58;100.00;98722.81;5061847;28;19927;-49
2022/08/05 05:47:31;;;;;;;;;;;;;;;27.63;100.00;98728.44;5062458;28;19920;-46
2022/08/05 05:49:57;;;;;;;;;;;;;;;27.30;100.00;98744.25;5053356;28;20001;-46
2022/08/05 05:52:23;;;;;;;;;;;;;;;27.45;100.00;98732.06;5058731;28;20727;-46
2022/08/05 05:54:48;;;;;;;;;;;;;;;27.24;100.00;98744.94;5058535;28;19920;-46
2022/08/05 05:57:13;;;;;;;;;;;;;;;27.51;100.00;98742.00;5063433;28;19963;-48
2022/08/05 05:59:38;;;;;;;;;;;;;;;27.46;100.00;98733.72;5060526;28;19955;-47
2022/08/05 06:02:03;;;;;;;;;;;;;;;27.52;100.00;98725.13;5061063;28;19956;-45
2022/08/05 06:04:29;;;;;;;;;;;;;;;25.79;100.00;98756.94;5062359;28;19951;-49
2022/08/05 06:06:54;;;;;;;;;;;;;;;25.72;100.00;98757.69;5055580;28;19920;-46
2022/08/05 06:09:19;;;;;;;;;;;;;;;25.60;100.00;98739.47;5059460;28;19920;-46
2022/08/05 06:11:44;;;;;;;;;;;;;;;25.82;100.00;98746.09;5060364;28;19935;-45
2022/08/05 06:14:10;;;;;;;;;;;;;;;25.10;100.00;98752.28;5062348;28;20380;-46
2022/08/05 06:16:35;;;;;;;;;;;;;;;24.65;100.00;98758.31;5062828;28;20376;-46
2022/08/05 06:19:00;;;;;;;;;;;;;;;24.83;100.00;98751.31;5054155;28;19928;-45
2022/08/05 06:21:25;;;;;;;;;;;;;;;24.52;100.00;98761.28;5063798;28;19924;-47
2022/08/05 06:23:51;;;;;;;;;;;;;;;25.24;100.00;98759.72;5054472;28;19935;-46
2022/08/05 06:26:17;;;;;;;;;;;;;;;24.40;100.00;98757.94;5053954;28;19975;-47
2022/08/05 06:28:42;;;;;;;;;;;;;;;24.98;100.00;98764.84;5056507;28;19924;-46
2022/08/05 06:31:07;;;;;;;;;;;;;;;24.61;100.00;98752.53;5055915;28;20417;-49
2022/08/05 06:33:32;;;;;;;;;;;;;;;25.38;100.00;98751.28;5053358;28;20452;-46
2022/08/05 06:35:57;;;;;;;;;;;;;;;25.70;100.00;98746.47;5059893;28;19920;-46
2022/08/05 06:38:23;;;;;;;;;;;;;;;25.43;100.00;98753.47;5058165;28;19924;-47
2022/08/05 06:40:48;;;;;;;;;;;;;;;26.67;100.00;98746.34;5056064;28;19916;-46
2022/08/05 06:43:13;;;;;;;;;;;;;;;26.88;100.00;98739.84;5053315;28;20011;-48
2022/08/05 06:45:38;;;;;;;;;;;;;;;26.91;100.00;98736.84;5057642;28;20038;-48
2022/08/05 06:48:04;;;;;;;;;;;;;;;26.43;100.00;98740.91;5056178;28;19943;-47
2022/08/05 06:50:29;;;;;;;;;;;;;;;25.83;100.00;98741.63;5052815;28;21011;-46
2022/08/05 06:52:54;;;;;;;;;;;;;;;26.35;100.00;98738.25;5054817;28;20436;-46
2022/08/05 06:55:20;;;;;;;;;;;;;;;26.17;100.00;98741.75;5060082;28;20437;-47
2022/08/05 06:57:45;;;;;;;;;;;;;;;26.12;100.00;98749.31;5056354;28;19921;-47
2022/08/05 07:00:10;;;;;;;;;;;;;;;26.64;100.00;98759.88;5065420;28;20031;-47
2022/08/05 07:02:42;;;;;;;;;;;;;;;26.53;100.00;98756.66;5064386;28;20691;-46
2022/08/05 07:05:07;;;;;;;;;;;;;;;27.21;100.00;98745.22;5063767;28;19924;-47
2022/08/05 07:07:33;;;;;;;;;;;;;;;27.11;100.00;98755.94;5070491;28;20443;-48
2022/08/05 07:09:58;;;;;;;;;;;;;;;27.39;100.00;98767.09;5061744;28;20466;-47
2022/08/05 07:17:51;;;;;;;;;;;;;;;27.24;100.00;98766.09;5063547;28;20346;-46
2022/08/05 07:20:16;;;;;;;;;;;;;;;27.77;100.00;98767.47;5068930;28;19920;-46
2022/08/05 07:22:41;;;;;;;;;;;;;;;27.98;100.00;98769.66;5069927;28;19924;-46
2022/08/05 07:25:07;;;;;;;;;;;;;;;27.73;100.00;98771.44;5068107;28;20365;-50
2022/08/05 07:27:32;;;;;;;;;;;;;;;28.11;100.00;98779.75;5069773;28;20385;-47
2022/08/05 07:29:57;;;;;;;;;;;;;;;28.11;100.00;98777.91;5060400;28;19926;-50
2022/08/05 07:32:23;;;;;;;;;;;;;;;28.19;100.00;98787.69;5060121;28;20348;-47
2022/08/05 07:34:48;;;;;;;;;;;;;;;28.16;100.00;98777.41;5067127;28;20368;-48
2022/08/05 07:37:13;;;;;;;;;;;;;;;28.00;100.00;98786.19;5062391;28;19954;-47
2022/08/05 07:39:38;;;;;;;;;;;;;;;27.69;100.00;98800.06;5059262;28;19977;-48
2022/08/05 07:42:04;;;;;;;;;;;;;;;27.93;100.00;98798.44;5066138;28;19985;-48
2022/08/05 07:44:29;;;;;;;;;;;;;;;27.74;100.00;98787.16;5062171;28;19931;-45
2022/08/05 07:46:54;;;;;;;;;;;;;;;27.41;100.00;98799.47;5062220;28;20734;-47
2022/08/05 07:49:19;;;;;;;;;;;;;;;27.58;100.00;98789.78;5061968;28;20050;-48
2022/08/05 07:51:45;;;;;;;;;;;;;;;28.14;100.00;98792.63;5063966;28;19998;-48
2022/08/05 07:54:10;;;;;;;;;;;;;;;28.18;100.00;98791.31;5064304;28;19928;-47
2022/08/05 07:56:36;;;;;;;;;;;;;;;26.59;100.00;98804.41;5061665;28;20019;-48
2022/08/05 07:59:01;;;;;;;;;;;;;;;27.09;100.00;98801.00;5064511;28;20014;-46
2022/08/05 08:01:26;;;;;;;;;;;;;;;26.77;100.00;98822.03;5067645;28;20274;-49
2022/08/05 08:03:51;;;;;;;;;;;;;;;27.02;100.00;98807.94;5058586;28;19928;-47
2022/08/05 08:06:17;;;;;;;;;;;;;;;26.98;100.00;98813.69;5064985;28;20013;-47
2022/08/05 08:08:42;;;;;;;;;;;;;;;26.80;100.00;98833.13;5061857;28;19923;-50
2022/08/05 08:11:07;;;;;;;;;;;;;;;25.93;100.00;98844.47;5064501;28;19923;-49
2022/08/05 08:13:32;;;;;;;;;;;;;;;24.92;100.00;98840.00;5056860;28;20025;-51
2022/08/05 08:15:57;;;;;;;;;;;;;;;24.57;100.00;98852.03;5065204;28;19952;-49
2022/08/05 08:18:23;;;;;;;;;;;;;;;24.91;100.00;98845.44;5061534;28;19963;-47
2022/08/05 08:20:50;;;;;;;;;;;;;;;24.82;100.00;98845.31;5067959;28;19989;-46
2022/08/05 08:23:17;;;;;;;;;;;;;;;24.78;100.00;98854.47;5064122;28;19924;-47
2022/08/05 08:25:42;;;;;;;;;;;;;;;25.32;100.00;98856.53;5070044;28;19965;-47
2022/08/05 08:28:07;;;;;;;;;;;;;;;25.58;100.00;98856.63;5063918;28;19920;-49
2022/08/05 08:30:32;;;;;;;;;;;;;;;25.34;100.00;98860.66;5065624;28;19924;-49
2022/08/05 08:32:58;;;;;;;;;;;;;;;25.22;100.00;98867.09;5057922;28;20282;-48
2022/08/05 08:35:23;;;;;;;;;;;;;;;24.99;100.00;98864.78;5062001;28;19920;-50
2022/08/05 08:37:48;;;;;;;;;;;;;;;24.85;100.00;98867.91;5062875;28;19916;-47
2022/08/05 08:40:13;;;;;;;;;;;;;;;25.13;100.00;98870.56;5060370;28;19926;-49
2022/08/05 08:42:39;;;;;;;;;;;;;;;25.57;100.00;98866.38;5058208;28;19963;-51
2022/08/05 08:45:04;;;;;;;;;;;;;;;25.01;100.00;98875.19;5061398;28;19924;-50
2022/08/05 08:47:30;;;;;;;;;;;;;;;24.07;100.00;98886.41;5069414;28;19943;-50
2022/08/05 08:49:56;;;;;;;;;;;;;;;23.70;100.00;98884.38;5058442;28;19924;-49
2022/08/05 08:52:25;;;;;;;;;;;;;;;23.59;100.00;98893.22;5062681;28;20732;-50
2022/08/05 08:54:51;;;;;;;;;;;;;;;23.86;100.00;98891.78;5060108;28;20019;-48
2022/08/05 08:57:16;;;;;;;;;;;;;;;23.64;100.00;98894.63;5061860;28;19927;-48
2022/08/05 08:59:41;;;;;;;;;;;;;;;24.14;100.00;98903.28;5059571;28;20807;-49
2022/08/05 09:02:07;;;;;;;;;;;;;;;23.46;100.00;98915.44;5063795;28;19967;-50
2022/08/05 09:04:35;;;;;;;;;;;;;;;23.65;100.00;98923.41;5058247;28;20567;-48
2022/08/05 09:07:00;;;;;;;;;;;;;;;23.84;100.00;98916.56;5058235;28;19920;-48
2022/08/05 09:09:25;;;;;;;;;;;;;;;24.14;100.00;98926.97;5065587;28;19932;-52
2022/08/05 09:11:50;;;;;;;;;;;;;;;23.59;100.00;98923.94;5064936;28;19930;-51
2022/08/05 09:14:16;;;;;;;;;;;;;;;23.16;100.00;98927.63;5066817;28;20011;-51
2022/08/05 09:16:41;;;;;;;;;;;;;;;23.01;100.00;98924.50;5064619;28;20027;-48
2022/08/05 09:19:07;;;;;;;;;;;;;;;22.80;100.00;98921.88;5061192;28;19920;-48
2022/08/05 09:21:32;;;;;;;;;;;;;;;23.19;100.00;98935.25;5062630;28;19939;-47
2022/08/05 09:24:03;;;;;;;;;;;;;;;22.81;100.00;98938.44;5063109;28;20593;-50
2022/08/05 09:26:28;;;;;;;;;;;;;;;22.80;100.00;98937.63;5057453;28;20009;-49
2022/08/05 09:28:53;;;;;;;;;;;;;;;23.07;100.00;98938.94;5062936;28;19928;-48
2022/08/05 09:31:19;;;;;;;;;;;;;;;23.33;100.00;98939.31;5062156;28;19967;-50
2022/08/05 09:33:48;;;;;;;;;;;;;;;23.63;100.00;98938.47;5060112;28;19917;-50
2022/08/05 09:36:13;;;;;;;;;;;;;;;23.60;100.00;98941.34;5059577;28;19917;-48
2022/08/05 09:38:39;;;;;;;;;;;;;;;23.87;100.00;98948.66;5061185;28;19927;-52
2022/08/05 09:41:05;;;;;;;;;;;;;;;23.35;100.00;98951.34;5064464;28;20289;-50
2022/08/05 09:43:31;;;;;;;;;;;;;;;22.71;100.00;98964.66;5069704;28;19967;-50
2022/08/05 09:45:56;;;;;;;;;;;;;;;22.49;100.00;98979.53;5064514;28;20350;-48
2022/08/05 09:48:25;;;;;;;;;;;;;;;22.84;100.00;98974.97;5065100;28;19916;-48
2022/08/05 09:50:52;;;;;;;;;;;;;;;22.88;100.00;98982.47;5058326;28;19916;-47
2022/08/05 09:53:17;;;;;;;;;;;;;;;22.47;100.00;98985.88;5055159;28;19916;-49
2022/08/05 09:55:42;;;;;;;;;;;;;;;22.75;100.00;98998.38;5059911;28;19921;-50
2022/08/05 09:58:11;;;;;;;;;;;;;;;22.18;100.00;98994.28;5058981;28;19916;-50
2022/08/05 10:00:37;;;;;;;;;;;;;;;22.57;100.00;98999.09;5056665;28;19924;-49
2022/08/05 10:03:07;;;;;;;;;;;;;;;22.49;100.00;99008.41;5064025;28;19927;-49
2022/08/05 10:05:34;;;;;;;;;;;;;;;22.87;100.00;99007.03;5057155;28;20290;-51
2022/08/05 10:08:00;;;;;;;;;;;;;;;23.88;100.00;99002.09;5059810;28;20038;-50
2022/08/05 10:10:26;;;;;;;;;;;;;;;23.22;100.00;99013.81;5060723;28;19927;-51
2022/08/05 10:12:53;;;;;;;;;;;;;;;23.26;100.00;99011.75;5056598;28;20039;-48
2022/08/05 10:15:18;;;;;;;;;;;;;;;22.75;100.00;99023.81;5056195;28;19927;-50
2022/08/05 10:17:44;;;;;;;;;;;;;;;23.12;100.00;99016.38;5062269;28;19912;-50
2022/08/05 10:20:11;;;;;;;;;;;;;;;22.43;100.00;99024.66;5059605;28;19970;-48
2022/08/05 10:22:38;;;;;;;;;;;;;;;22.50;100.00;99014.50;5059491;28;19916;-49
2022/08/05 10:25:03;;;;;;;;;;;;;;;22.34;100.00;99025.38;5057874;28;20011;-48
2022/08/05 10:27:29;;;;;;;;;;;;;;;21.95;100.00;99034.63;5058287;28;20570;-50
2022/08/05 10:29:54;;;;;;;;;;;;;;;21.47;100.00;99046.16;5059031;28;19956;-48
2022/08/05 10:32:19;;;;;;;;;;;;;;;22.11;100.00;99040.31;5063988;28;19978;-46
2022/08/05 10:34:45;;;;;;;;;;;;;;;22.16;100.00;99047.81;5055522;28;19956;-48
2022/08/05 10:37:10;;;;;;;;;;;;;;;22.58;100.00;99042.72;5055658;28;20035;-48
2022/08/05 10:39:36;;;;;;;;;;;;;;;22.24;100.00;99046.28;5032464;28;20014;-50
2022/08/05 10:42:02;;;;;;;;;;;;;;;22.56;100.00;99050.75;5052959;28;20472;-47
2022/08/05 10:44:28;;;;;;;;;;;;;;;22.94;100.00;99054.63;5051422;28;20667;-48
2022/08/05 10:46:54;;;;;;;;;;;;;;;22.39;100.00;99054.72;5056307;28;19924;-50
2022/08/05 10:49:20;;;;;;;;;;;;;;;22.92;100.00;99061.81;5060929;28;19920;-47
2022/08/05 10:51:49;;;;;;;;;;;;;;;22.57;100.00;99072.56;5053221;28;19919;-50
2022/08/05 10:54:15;;;;;;;;;;;;;;;23.03;100.00;99066.22;5057450;28;19959;-48
2022/08/05 10:56:46;;;;;;;;;;;;;;;22.93;100.00;99068.75;5061383;28;19999;-49
2022/08/05 10:59:15;;;;;;;;;;;;;;;23.65;100.00;99075.91;5057410;28;19920;-52
2022/08/05 11:01:43;;;;;;;;;;;;;;;24.23;100.00;99090.28;5054267;28;19967;-47
2022/08/05 11:04:08;;;;;;;;;;;;;;;23.82;100.00;99092.06;5066157;28;19924;-51
2022/08/05 11:06:34;;;;;;;;;;;;;;;24.20;100.00;99097.47;5062327;28;19935;-48
2022/08/05 11:09:11;;;;;;;;;;;;;;;23.68;100.00;99094.03;5064726;28;20449;-51
2022/08/05 11:11:37;;;;;;;;;;;;;;;23.82;100.00;99102.59;5061633;28;19924;-50
2022/08/05 11:14:02;;;;;;;;;;;;;;;24.18;100.00;99098.59;5054156;28;19920;-48
2022/08/05 11:16:28;;;;;;;;;;;;;;;25.15;100.00;99092.63;5067249;28;19920;-49
2022/08/05 11:19:12;;;;;;;;;;;;;;;25.07;100.00;99100.41;5052482;28;19920;-50
2022/08/05 11:21:37;;;;;;;;;;;;;;;24.67;100.00;99101.34;5059598;28;19923;-50
2022/08/05 11:24:06;;;;;;;;;;;;;;;25.08;100.00;99097.63;5055277;28;19924;-49
2022/08/05 11:26:31;;;;;;;;;;;;;;;24.61;100.00;99110.66;5058640;28;20961;-47
2022/08/05 11:28:57;;;;;;;;;;;;;;;24.32;100.00;99116.63;5056048;28;19952;-48
2022/08/05 11:31:26;;;;;;;;;;;;;;;25.54;100.00;99108.41;5059926;28;19916;-48
2022/08/05 11:33:51;;;;;;;;;;;;;;;26.07;100.00;99111.34;5063868;28;19931;-48
2022/08/05 11:36:18;;;;;;;;;;;;;;;25.23;100.00;99121.81;5058939;28;19916;-49
2022/08/05 11:38:43;;;;;;;;;;;;;;;24.16;100.00;99129.47;5060250;28;19920;-48
2022/08/05 11:41:14;;;;;;;;;;;;;;;24.90;100.00;99134.38;5048639;28;20030;-48
2022/08/05 11:43:59;;;;;;;;;;;;;;;25.21;100.00;99136.91;5060692;28;19920;-48
2022/08/05 11:46:30;;;;;;;;;;;;;;;24.16;100.00;99153.97;5045120;28;19925;-50
2022/08/05 11:48:55;;;;;;;;;;;;;;;23.96;100.00;99153.03;5050583;28;19966;-48
2022/08/05 11:51:21;;;;;;;;;;;;;;;24.23;100.00;99156.06;5064713;28;20014;-50
2022/08/05 11:53:46;;;;;;;;;;;;;;;24.99;100.00;99146.72;5058349;28;19925;-50
2022/08/05 11:56:12;;;;;;;;;;;;;;;24.30;100.00;99157.22;5062858;28;19921;-51
2022/08/05 11:58:41;;;;;;;;;;;;;;;24.23;100.00;99153.44;5058397;28;20680;-48
2022/08/05 12:01:07;;;;;;;;;;;;;;;24.91;100.00;99151.84;5054176;28;19931;-48
2022/08/05 12:03:59;;;;;;;;;;;;;;;24.09;100.00;99168.63;5065226;28;20403;-47
2022/08/05 12:06:25;;;;;;;;;;;;;;;23.64;100.00;99166.25;5060373;28;20034;-47
2022/08/05 12:08:51;;;;;;;;;;;;;;;23.90;100.00;99160.59;5061366;28;19931;-49
2022/08/05 12:11:18;;;;;;;;;;;;;;;24.84;100.00;99169.19;5055408;28;19924;-47
2022/08/05 12:13:52;;;;;;;;;;;;;;;24.72;100.00;99170.25;5057718;28;19921;-49
2022/08/05 12:16:17;;;;;;;;;;;;;;;25.55;100.00;99162.84;5046868;28;19975;-48
2022/08/05 12:18:44;;;;;;;;;;;;;;;24.71;100.00;99173.84;5060003;28;20632;-48
2022/08/05 12:21:12;;;;;;;;;;;;;;;24.65;100.00;99171.75;5058979;28;20018;-47
2022/08/05 12:23:38;;;;;;;;;;;;;;;24.57;100.00;99168.00;5056406;28;19932;-47
2022/08/05 12:26:03;;;;;;;;;;;;;;;24.30;100.00;99175.63;5059582;28;19917;-47
2022/08/05 12:28:32;;;;;;;;;;;;;;;24.16;100.00;99172.38;5067129;28;20322;-48
2022/08/05 12:30:57;;;;;;;;;;;;;;;24.91;100.00;99174.75;5059561;28;19924;-49
2022/08/05 12:33:23;;;;;;;;;;;;;;;24.59;100.00;99171.34;5061582;28;19920;-47
2022/08/05 12:35:48;;;;;;;;;;;;;;;24.68;100.00;99174.97;5061190;28;19996;-49